sensor_id;sensor_type;location;lat;lon;timestamp;temperature;humidity
16066;DHT22;8137;48.952;8.970;2023-07-08T00:02:24;18.00;99.90
16066;DHT22;8137;48.952;8.970;2023-07-08T00:04:49;17.90;99.90
16066;DHT22;8137;48.952;8.970;2023-07-08T00:07:18;17.90;99.90
16066;DHT22;8137;48.952;8.970;2023-07-08T00:09:44;17.80;99.90
16066;DHT22;8137;48.952;8.970;2023-07-08T00:12:10;17.70;99.90
16066;DHT22;8137;48.952;8.970;2023-07-08T00:14:36;17.70;99.90
16066;DHT22;8137;48.952;8.970;2023-07-08T00:17:04;17.60;99.90
16066;DHT22;8137;48.952;8.970;2023-07-08T00:19:30;17.60;99.90
16066;DHT22;8137;48.952;8.970;2023-07-08T00:21:56;17.60;99.90
16066;DHT22;8137;48.952;8.970;2023-07-08T00:24:22;17.50;99.90
16066;DHT22;8137;48.952;8.970;2023-07-08T00:26:47;17.50;99.90
16066;DHT22;8137;48.952;8.970;2023-07-08T00:29:15;17.50;99.90
16066;DHT22;8137;48.952;8.970;2023-07-08T00:31:41;17.50;99.90
16066;DHT22;8137;48.952;8.970;2023-07-08T00:34:07;17.50;99.90
16066;DHT22;8137;48.952;8.970;2023-07-08T00:36:34;17.50;99.90
16066;DHT22;8137;48.952;8.970;2023-07-08T00:39:00;17.50;99.90
16066;DHT22;8137;48.952;8.970;2023-07-08T00:43:52;17.40;99.90
16066;DHT22;8137;48.952;8.970;2023-07-08T00:46:29;17.40;99.90
16066;DHT22;8137;48.952;8.970;2023-07-08T00:51:36;17.30;99.90
16066;DHT22;8137;48.952;8.970;2023-07-08T00:54:11;17.20;99.90
16066;DHT22;8137;48.952;8.970;2023-07-08T00:56:45;17.20;99.90
16066;DHT22;8137;48.952;8.970;2023-07-08T00:59:19;17.20;99.90
16066;DHT22;8137;48.952;8.970;2023-07-08T01:01:46;17.20;99.90
16066;DHT22;8137;48.952;8.970;2023-07-08T01:04:18;17.20;99.90
16066;DHT22;8137;48.952;8.970;2023-07-08T01:06:50;17.20;99.90
16066;DHT22;8137;48.952;8.970;2023-07-08T01:09:25;17.10;99.90
16066;DHT22;8137;48.952;8.970;2023-07-08T01:11:52;17.10;99.90
16066;DHT22;8137;48.952;8.970;2023-07-08T01:14:20;17.00;99.90
16066;DHT22;8137;48.952;8.970;2023-07-08T01:16:47;17.00;99.90
16066;DHT22;8137;48.952;8.970;2023-07-08T01:19:17;17.00;99.90
16066;DHT22;8137;48.952;8.970;2023-07-08T01:22:07;17.00;99.90
16066;DHT22;8137;48.952;8.970;2023-07-08T01:24:35;17.00;99.90
16066;DHT22;8137;48.952;8.970;2023-07-08T01:27:04;17.00;99.90
16066;DHT22;8137;48.952;8.970;2023-07-08T01:29:30;16.90;99.90
16066;DHT22;8137;48.952;8.970;2023-07-08T01:31:57;16.80;99.90
16066;DHT22;8137;48.952;8.970;2023-07-08T01:34:23;16.70;99.90
16066;DHT22;8137;48.952;8.970;2023-07-08T01:36:53;16.60;99.90
16066;DHT22;8137;48.952;8.970;2023-07-08T01:39:21;16.60;99.90
16066;DHT22;8137;48.952;8.970;2023-07-08T01:41:47;16.50;99.90
16066;DHT22;8137;48.952;8.970;2023-07-08T01:44:42;16.50;99.90
16066;DHT22;8137;48.952;8.970;2023-07-08T01:49:37;16.40;99.90
16066;DHT22;8137;48.952;8.970;2023-07-08T01:52:04;16.40;99.90
16066;DHT22;8137;48.952;8.970;2023-07-08T01:54:31;16.40;99.90
16066;DHT22;8137;48.952;8.970;2023-07-08T01:56:57;16.50;99.90
16066;DHT22;8137;48.952;8.970;2023-07-08T01:59:23;16.50;99.90
16066;DHT22;8137;48.952;8.970;2023-07-08T02:01:49;16.50;99.90
16066;DHT22;8137;48.952;8.970;2023-07-08T02:04:19;16.40;99.90
16066;DHT22;8137;48.952;8.970;2023-07-08T02:06:54;16.30;99.90
16066;DHT22;8137;48.952;8.970;2023-07-08T02:09:20;16.20;99.90
16066;DHT22;8137;48.952;8.970;2023-07-08T02:11:45;16.20;99.90
16066;DHT22;8137;48.952;8.970;2023-07-08T02:14:11;16.20;99.90
16066;DHT22;8137;48.952;8.970;2023-07-08T02:16:37;16.10;99.90
16066;DHT22;8137;48.952;8.970;2023-07-08T02:19:02;16.10;99.90
16066;DHT22;8137;48.952;8.970;2023-07-08T02:21:28;16.00;99.90
16066;DHT22;8137;48.952;8.970;2023-07-08T02:23:56;16.00;99.90
16066;DHT22;8137;48.952;8.970;2023-07-08T02:26:22;16.00;99.90
16066;DHT22;8137;48.952;8.970;2023-07-08T02:28:48;16.00;99.90
16066;DHT22;8137;48.952;8.970;2023-07-08T02:31:13;16.10;99.90
16066;DHT22;8137;48.952;8.970;2023-07-08T02:33:39;16.00;99.90
16066;DHT22;8137;48.952;8.970;2023-07-08T02:36:05;16.00;99.90
16066;DHT22;8137;48.952;8.970;2023-07-08T02:38:30;16.00;99.90
16066;DHT22;8137;48.952;8.970;2023-07-08T02:40:56;16.00;99.90
16066;DHT22;8137;48.952;8.970;2023-07-08T02:43:22;15.90;99.90
16066;DHT22;8137;48.952;8.970;2023-07-08T02:45:51;15.80;99.90
16066;DHT22;8137;48.952;8.970;2023-07-08T02:48:20;15.80;99.90
16066;DHT22;8137;48.952;8.970;2023-07-08T02:50:46;15.80;99.90
16066;DHT22;8137;48.952;8.970;2023-07-08T02:53:12;15.70;99.90
16066;DHT22;8137;48.952;8.970;2023-07-08T02:55:39;15.60;99.90
16066;DHT22;8137;48.952;8.970;2023-07-08T02:58:05;15.60;99.90
16066;DHT22;8137;48.952;8.970;2023-07-08T03:00:31;15.60;99.90
16066;DHT22;8137;48.952;8.970;2023-07-08T03:02:56;15.60;99.90
16066;DHT22;8137;48.952;8.970;2023-07-08T03:05:22;15.60;99.90
16066;DHT22;8137;48.952;8.970;2023-07-08T03:07:47;15.60;99.90
16066;DHT22;8137;48.952;8.970;2023-07-08T03:10:13;15.60;99.90
16066;DHT22;8137;48.952;8.970;2023-07-08T03:12:38;15.70;99.90
16066;DHT22;8137;48.952;8.970;2023-07-08T03:15:05;15.70;99.90
16066;DHT22;8137;48.952;8.970;2023-07-08T03:17:30;15.80;99.90
16066;DHT22;8137;48.952;8.970;2023-07-08T03:19:56;15.80;99.90
16066;DHT22;8137;48.952;8.970;2023-07-08T03:22:21;15.80;99.90
16066;DHT22;8137;48.952;8.970;2023-07-08T03:24:47;15.80;99.90
16066;DHT22;8137;48.952;8.970;2023-07-08T03:27:14;15.80;99.90
16066;DHT22;8137;48.952;8.970;2023-07-08T03:29:40;15.90;99.90
16066;DHT22;8137;48.952;8.970;2023-07-08T03:32:09;15.90;99.90
16066;DHT22;8137;48.952;8.970;2023-07-08T03:34:35;15.90;99.90
16066;DHT22;8137;48.952;8.970;2023-07-08T03:37:01;15.80;99.90
16066;DHT22;8137;48.952;8.970;2023-07-08T03:39:27;15.80;99.90
16066;DHT22;8137;48.952;8.970;2023-07-08T03:41:53;15.90;99.90
16066;DHT22;8137;48.952;8.970;2023-07-08T03:44:19;15.90;99.90
16066;DHT22;8137;48.952;8.970;2023-07-08T03:46:45;15.80;99.90
16066;DHT22;8137;48.952;8.970;2023-07-08T03:49:12;15.80;99.90
16066;DHT22;8137;48.952;8.970;2023-07-08T03:51:39;15.90;99.90
16066;DHT22;8137;48.952;8.970;2023-07-08T03:54:07;15.90;99.90
16066;DHT22;8137;48.952;8.970;2023-07-08T03:56:34;16.00;99.90
16066;DHT22;8137;48.952;8.970;2023-07-08T03:59:00;15.90;99.90
16066;DHT22;8137;48.952;8.970;2023-07-08T04:01:25;16.00;99.90
16066;DHT22;8137;48.952;8.970;2023-07-08T04:03:53;16.10;99.90
16066;DHT22;8137;48.952;8.970;2023-07-08T04:06:19;16.00;99.90
16066;DHT22;8137;48.952;8.970;2023-07-08T04:08:45;16.00;99.90
16066;DHT22;8137;48.952;8.970;2023-07-08T04:11:17;16.10;99.90
16066;DHT22;8137;48.952;8.970;2023-07-08T04:13:43;16.10;99.90
16066;DHT22;8137;48.952;8.970;2023-07-08T04:16:16;16.20;99.90
16066;DHT22;8137;48.952;8.970;2023-07-08T04:18:42;16.30;99.90
16066;DHT22;8137;48.952;8.970;2023-07-08T04:21:08;16.50;99.90
16066;DHT22;8137;48.952;8.970;2023-07-08T04:23:33;16.60;99.90
16066;DHT22;8137;48.952;8.970;2023-07-08T04:25:59;16.80;99.90
16066;DHT22;8137;48.952;8.970;2023-07-08T04:28:25;16.90;99.90
16066;DHT22;8137;48.952;8.970;2023-07-08T04:30:51;17.00;99.90
16066;DHT22;8137;48.952;8.970;2023-07-08T04:33:17;17.10;99.90
16066;DHT22;8137;48.952;8.970;2023-07-08T04:35:44;17.20;99.90
16066;DHT22;8137;48.952;8.970;2023-07-08T04:38:17;17.40;99.90
16066;DHT22;8137;48.952;8.970;2023-07-08T04:40:43;17.50;99.90
16066;DHT22;8137;48.952;8.970;2023-07-08T04:43:12;17.70;99.90
16066;DHT22;8137;48.952;8.970;2023-07-08T04:45:39;17.90;99.90
16066;DHT22;8137;48.952;8.970;2023-07-08T04:48:05;18.10;99.90
16066;DHT22;8137;48.952;8.970;2023-07-08T04:50:39;18.30;99.90
16066;DHT22;8137;48.952;8.970;2023-07-08T04:53:05;18.40;99.90
16066;DHT22;8137;48.952;8.970;2023-07-08T04:55:30;18.50;99.90
16066;DHT22;8137;48.952;8.970;2023-07-08T04:57:56;18.60;99.90
16066;DHT22;8137;48.952;8.970;2023-07-08T05:00:22;18.60;99.90
16066;DHT22;8137;48.952;8.970;2023-07-08T05:02:49;18.60;99.90
16066;DHT22;8137;48.952;8.970;2023-07-08T05:05:14;18.60;99.90
16066;DHT22;8137;48.952;8.970;2023-07-08T05:07:40;18.50;99.90
16066;DHT22;8137;48.952;8.970;2023-07-08T05:10:06;18.40;99.90
16066;DHT22;8137;48.952;8.970;2023-07-08T05:12:32;18.30;99.90
16066;DHT22;8137;48.952;8.970;2023-07-08T05:14:57;18.30;99.90
16066;DHT22;8137;48.952;8.970;2023-07-08T05:17:23;18.40;99.90
16066;DHT22;8137;48.952;8.970;2023-07-08T05:19:50;18.50;99.90
16066;DHT22;8137;48.952;8.970;2023-07-08T05:22:17;18.50;99.90
16066;DHT22;8137;48.952;8.970;2023-07-08T05:24:43;18.50;99.90
16066;DHT22;8137;48.952;8.970;2023-07-08T05:27:09;18.50;99.90
16066;DHT22;8137;48.952;8.970;2023-07-08T05:29:35;18.70;99.90
16066;DHT22;8137;48.952;8.970;2023-07-08T05:32:01;18.90;99.90
16066;DHT22;8137;48.952;8.970;2023-07-08T05:34:26;19.10;99.90
16066;DHT22;8137;48.952;8.970;2023-07-08T05:36:52;19.40;99.90
16066;DHT22;8137;48.952;8.970;2023-07-08T05:39:17;19.60;99.90
16066;DHT22;8137;48.952;8.970;2023-07-08T05:41:43;19.80;99.90
16066;DHT22;8137;48.952;8.970;2023-07-08T05:44:09;20.00;99.90
16066;DHT22;8137;48.952;8.970;2023-07-08T05:46:34;20.30;99.90
16066;DHT22;8137;48.952;8.970;2023-07-08T05:49:00;20.60;99.90
16066;DHT22;8137;48.952;8.970;2023-07-08T05:51:25;20.80;99.90
16066;DHT22;8137;48.952;8.970;2023-07-08T05:53:51;20.90;99.90
16066;DHT22;8137;48.952;8.970;2023-07-08T05:56:16;21.00;99.90
16066;DHT22;8137;48.952;8.970;2023-07-08T05:58:42;21.00;99.90
16066;DHT22;8137;48.952;8.970;2023-07-08T06:01:08;21.00;99.90
16066;DHT22;8137;48.952;8.970;2023-07-08T06:03:33;21.00;99.90
16066;DHT22;8137;48.952;8.970;2023-07-08T06:05:59;21.10;99.90
16066;DHT22;8137;48.952;8.970;2023-07-08T06:08:25;21.10;99.90
16066;DHT22;8137;48.952;8.970;2023-07-08T06:10:50;21.10;99.90
16066;DHT22;8137;48.952;8.970;2023-07-08T06:13:16;21.10;99.90
16066;DHT22;8137;48.952;8.970;2023-07-08T06:15:42;21.00;99.90
16066;DHT22;8137;48.952;8.970;2023-07-08T06:18:08;20.90;99.90
16066;DHT22;8137;48.952;8.970;2023-07-08T06:20:34;20.80;99.90
16066;DHT22;8137;48.952;8.970;2023-07-08T06:23:00;20.90;99.90
16066;DHT22;8137;48.952;8.970;2023-07-08T06:25:27;20.90;99.90
16066;DHT22;8137;48.952;8.970;2023-07-08T06:27:53;21.10;99.90
16066;DHT22;8137;48.952;8.970;2023-07-08T06:30:18;21.20;99.90
16066;DHT22;8137;48.952;8.970;2023-07-08T06:32:44;21.40;99.90
16066;DHT22;8137;48.952;8.970;2023-07-08T06:35:09;21.60;99.90
16066;DHT22;8137;48.952;8.970;2023-07-08T06:37:35;21.90;99.90
16066;DHT22;8137;48.952;8.970;2023-07-08T06:40:00;22.20;99.90
16066;DHT22;8137;48.952;8.970;2023-07-08T06:42:26;22.30;99.90
16066;DHT22;8137;48.952;8.970;2023-07-08T06:44:52;22.50;99.90
16066;DHT22;8137;48.952;8.970;2023-07-08T06:47:21;22.70;99.90
16066;DHT22;8137;48.952;8.970;2023-07-08T06:49:48;22.90;99.90
16066;DHT22;8137;48.952;8.970;2023-07-08T06:52:14;23.20;99.90
16066;DHT22;8137;48.952;8.970;2023-07-08T06:54:40;23.40;99.90
16066;DHT22;8137;48.952;8.970;2023-07-08T06:57:06;23.70;99.30
16066;DHT22;8137;48.952;8.970;2023-07-08T06:59:32;23.90;96.10
16066;DHT22;8137;48.952;8.970;2023-07-08T07:01:58;24.10;95.70
16066;DHT22;8137;48.952;8.970;2023-07-08T07:04:23;24.20;95.90
16066;DHT22;8137;48.952;8.970;2023-07-08T07:06:49;24.40;96.00
16066;DHT22;8137;48.952;8.970;2023-07-08T07:09:14;24.60;93.50
16066;DHT22;8137;48.952;8.970;2023-07-08T07:11:40;24.80;92.30
16066;DHT22;8137;48.952;8.970;2023-07-08T07:14:06;24.70;88.70
16066;DHT22;8137;48.952;8.970;2023-07-08T07:16:31;24.80;87.60
16066;DHT22;8137;48.952;8.970;2023-07-08T07:18:57;24.90;86.10
16066;DHT22;8137;48.952;8.970;2023-07-08T07:21:22;24.90;84.00
16066;DHT22;8137;48.952;8.970;2023-07-08T07:23:48;25.10;80.50
16066;DHT22;8137;48.952;8.970;2023-07-08T07:26:14;25.20;72.20
16066;DHT22;8137;48.952;8.970;2023-07-08T07:28:39;25.20;76.10
16066;DHT22;8137;48.952;8.970;2023-07-08T07:31:05;25.30;72.00
16066;DHT22;8137;48.952;8.970;2023-07-08T07:33:31;25.40;70.20
16066;DHT22;8137;48.952;8.970;2023-07-08T07:35:57;25.50;67.90
16066;DHT22;8137;48.952;8.970;2023-07-08T07:38:23;25.90;68.60
16066;DHT22;8137;48.952;8.970;2023-07-08T07:40:56;26.20;64.00
16066;DHT22;8137;48.952;8.970;2023-07-08T07:43:25;26.40;60.70
16066;DHT22;8137;48.952;8.970;2023-07-08T07:45:52;26.60;57.10
16066;DHT22;8137;48.952;8.970;2023-07-08T07:48:18;26.60;56.80
16066;DHT22;8137;48.952;8.970;2023-07-08T07:50:46;26.60;53.50
16066;DHT22;8137;48.952;8.970;2023-07-08T07:53:12;26.50;52.90
16066;DHT22;8137;48.952;8.970;2023-07-08T07:55:38;26.70;52.30
16066;DHT22;8137;48.952;8.970;2023-07-08T07:58:03;26.90;50.50
16066;DHT22;8137;48.952;8.970;2023-07-08T08:00:30;27.20;49.80
16066;DHT22;8137;48.952;8.970;2023-07-08T08:02:56;27.30;51.60
16066;DHT22;8137;48.952;8.970;2023-07-08T08:05:21;27.40;54.20
16066;DHT22;8137;48.952;8.970;2023-07-08T08:07:47;27.60;54.50
16066;DHT22;8137;48.952;8.970;2023-07-08T08:10:13;28.00;54.20
16066;DHT22;8137;48.952;8.970;2023-07-08T08:12:39;28.20;49.30
16066;DHT22;8137;48.952;8.970;2023-07-08T08:15:05;28.60;45.80
16066;DHT22;8137;48.952;8.970;2023-07-08T08:17:31;28.90;43.90
16066;DHT22;8137;48.952;8.970;2023-07-08T08:19:56;28.80;43.30
16066;DHT22;8137;48.952;8.970;2023-07-08T08:22:22;29.00;41.00
16066;DHT22;8137;48.952;8.970;2023-07-08T08:24:48;29.30;38.60
16066;DHT22;8137;48.952;8.970;2023-07-08T08:27:14;29.40;34.90
16066;DHT22;8137;48.952;8.970;2023-07-08T08:29:40;29.40;34.60
16066;DHT22;8137;48.952;8.970;2023-07-08T08:32:05;29.50;33.20
16066;DHT22;8137;48.952;8.970;2023-07-08T08:34:31;29.60;30.90
16066;DHT22;8137;48.952;8.970;2023-07-08T08:36:57;29.50;29.50
16066;DHT22;8137;48.952;8.970;2023-07-08T08:39:23;29.30;29.40
16066;DHT22;8137;48.952;8.970;2023-07-08T08:41:51;29.30;30.70
16066;DHT22;8137;48.952;8.970;2023-07-08T08:44:26;29.60;30.00
16066;DHT22;8137;48.952;8.970;2023-07-08T08:47:11;29.70;27.90
16066;DHT22;8137;48.952;8.970;2023-07-08T08:49:53;29.50;28.00
16066;DHT22;8137;48.952;8.970;2023-07-08T08:52:21;29.60;29.00
16066;DHT22;8137;48.952;8.970;2023-07-08T08:54:46;29.70;26.70
16066;DHT22;8137;48.952;8.970;2023-07-08T08:57:20;29.70;27.10
16066;DHT22;8137;48.952;8.970;2023-07-08T08:59:57;29.80;26.20
16066;DHT22;8137;48.952;8.970;2023-07-08T09:05:16;30.00;25.90
16066;DHT22;8137;48.952;8.970;2023-07-08T09:12:55;30.40;23.90
16066;DHT22;8137;48.952;8.970;2023-07-08T09:15:25;30.50;22.00
16066;DHT22;8137;48.952;8.970;2023-07-08T09:17:53;30.70;20.70
16066;DHT22;8137;48.952;8.970;2023-07-08T09:20:24;30.60;21.60
16066;DHT22;8137;48.952;8.970;2023-07-08T09:25:41;30.70;21.00
16066;DHT22;8137;48.952;8.970;2023-07-08T09:28:08;30.80;21.60
16066;DHT22;8137;48.952;8.970;2023-07-08T09:30:34;30.70;20.40
16066;DHT22;8137;48.952;8.970;2023-07-08T09:33:04;30.80;20.90
16066;DHT22;8137;48.952;8.970;2023-07-08T09:35:39;30.70;19.70
16066;DHT22;8137;48.952;8.970;2023-07-08T09:38:12;30.80;19.40
16066;DHT22;8137;48.952;8.970;2023-07-08T09:40:38;30.80;19.20
16066;DHT22;8137;48.952;8.970;2023-07-08T09:43:24;30.90;20.90
16066;DHT22;8137;48.952;8.970;2023-07-08T09:45:50;30.90;19.20
16066;DHT22;8137;48.952;8.970;2023-07-08T09:48:20;30.90;18.00
16066;DHT22;8137;48.952;8.970;2023-07-08T09:50:48;31.20;17.50
16066;DHT22;8137;48.952;8.970;2023-07-08T09:53:16;31.30;16.00
16066;DHT22;8137;48.952;8.970;2023-07-08T09:55:41;31.30;17.20
16066;DHT22;8137;48.952;8.970;2023-07-08T09:58:13;31.30;15.90
16066;DHT22;8137;48.952;8.970;2023-07-08T10:00:41;31.30;15.10
16066;DHT22;8137;48.952;8.970;2023-07-08T10:03:19;31.30;15.90
16066;DHT22;8137;48.952;8.970;2023-07-08T10:05:47;31.10;14.70
16066;DHT22;8137;48.952;8.970;2023-07-08T10:08:21;31.00;16.10
16066;DHT22;8137;48.952;8.970;2023-07-08T10:11:00;31.10;16.60
16066;DHT22;8137;48.952;8.970;2023-07-08T10:13:34;31.50;17.10
16066;DHT22;8137;48.952;8.970;2023-07-08T10:18:33;32.30;15.50
16066;DHT22;8137;48.952;8.970;2023-07-08T10:26:32;32.50;13.60
16066;DHT22;8137;48.952;8.970;2023-07-08T10:31:54;32.90;12.40
16066;DHT22;8137;48.952;8.970;2023-07-08T10:34:28;32.90;11.70
16066;DHT22;8137;48.952;8.970;2023-07-08T10:45:46;32.80;12.50
16066;DHT22;8137;48.952;8.970;2023-07-08T10:48:47;32.80;10.50
16066;DHT22;8137;48.952;8.970;2023-07-08T10:54:42;32.80;11.40
16066;DHT22;8137;48.952;8.970;2023-07-08T11:05:54;33.10;10.20
16066;DHT22;8137;48.952;8.970;2023-07-08T11:08:35;33.00;13.20
16066;DHT22;8137;48.952;8.970;2023-07-08T11:13:57;33.10;10.90
16066;DHT22;8137;48.952;8.970;2023-07-08T11:16:29;33.10;10.50
16066;DHT22;8137;48.952;8.970;2023-07-08T11:24:24;32.90;8.20
16066;DHT22;8137;48.952;8.970;2023-07-08T11:27:15;32.90;11.70
16066;DHT22;8137;48.952;8.970;2023-07-08T11:30:06;33.10;10.60
16066;DHT22;8137;48.952;8.970;2023-07-08T11:32:35;33.40;9.80
16066;DHT22;8137;48.952;8.970;2023-07-08T11:35:04;33.50;8.80
16066;DHT22;8137;48.952;8.970;2023-07-08T11:37:31;33.50;8.60
16066;DHT22;8137;48.952;8.970;2023-07-08T11:40:18;33.40;9.30
16066;DHT22;8137;48.952;8.970;2023-07-08T11:42:48;33.40;9.80
16066;DHT22;8137;48.952;8.970;2023-07-08T11:47:47;33.40;8.60
16066;DHT22;8137;48.952;8.970;2023-07-08T11:53:01;33.00;9.00
16066;DHT22;8137;48.952;8.970;2023-07-08T11:55:37;33.00;9.10
16066;DHT22;8137;48.952;8.970;2023-07-08T11:58:07;32.40;8.30
16066;DHT22;8137;48.952;8.970;2023-07-08T12:00:33;32.20;8.50
16066;DHT22;8137;48.952;8.970;2023-07-08T12:03:19;32.00;9.20
16066;DHT22;8137;48.952;8.970;2023-07-08T12:05:45;31.80;9.50
16066;DHT22;8137;48.952;8.970;2023-07-08T12:08:13;31.70;9.70
16066;DHT22;8137;48.952;8.970;2023-07-08T12:10:49;32.00;11.70
16066;DHT22;8137;48.952;8.970;2023-07-08T12:13:19;32.40;9.60
16066;DHT22;8137;48.952;8.970;2023-07-08T12:15:46;32.50;9.60
16066;DHT22;8137;48.952;8.970;2023-07-08T12:20:45;32.90;9.00
16066;DHT22;8137;48.952;8.970;2023-07-08T12:23:21;33.00;8.20
16066;DHT22;8137;48.952;8.970;2023-07-08T12:25:51;33.20;8.20
16066;DHT22;8137;48.952;8.970;2023-07-08T12:28:17;33.40;8.20
16066;DHT22;8137;48.952;8.970;2023-07-08T12:30:44;33.30;7.90
16066;DHT22;8137;48.952;8.970;2023-07-08T12:33:19;33.30;6.70
16066;DHT22;8137;48.952;8.970;2023-07-08T12:35:47;33.40;9.20
16066;DHT22;8137;48.952;8.970;2023-07-08T12:38:35;33.30;6.80
16066;DHT22;8137;48.952;8.970;2023-07-08T12:41:09;33.30;6.00
16066;DHT22;8137;48.952;8.970;2023-07-08T12:43:35;33.00;5.60
16066;DHT22;8137;48.952;8.970;2023-07-08T12:46:01;32.60;7.70
16066;DHT22;8137;48.952;8.970;2023-07-08T12:48:38;32.50;7.60
16066;DHT22;8137;48.952;8.970;2023-07-08T12:51:06;32.70;8.90
16066;DHT22;8137;48.952;8.970;2023-07-08T12:53:32;33.30;9.40
16066;DHT22;8137;48.952;8.970;2023-07-08T12:56:00;33.80;7.20
16066;DHT22;8137;48.952;8.970;2023-07-08T12:58:30;33.80;7.30
16066;DHT22;8137;48.952;8.970;2023-07-08T13:00:59;33.80;7.30
16066;DHT22;8137;48.952;8.970;2023-07-08T13:03:30;33.80;7.80
16066;DHT22;8137;48.952;8.970;2023-07-08T13:06:00;34.20;6.70
16066;DHT22;8137;48.952;8.970;2023-07-08T13:08:34;34.10;5.60
16066;DHT22;8137;48.952;8.970;2023-07-08T13:11:02;33.80;5.10
16066;DHT22;8137;48.952;8.970;2023-07-08T13:13:33;33.20;5.20
16066;DHT22;8137;48.952;8.970;2023-07-08T13:15:59;32.70;5.30
16066;DHT22;8137;48.952;8.970;2023-07-08T13:18:36;32.40;6.90
16066;DHT22;8137;48.952;8.970;2023-07-08T13:21:05;32.40;6.40
16066;DHT22;8137;48.952;8.970;2023-07-08T13:23:32;32.80;7.20
16066;DHT22;8137;48.952;8.970;2023-07-08T13:25:58;33.30;7.70
16066;DHT22;8137;48.952;8.970;2023-07-08T13:28:25;33.70;7.20
16066;DHT22;8137;48.952;8.970;2023-07-08T13:30:59;34.20;7.30
16066;DHT22;8137;48.952;8.970;2023-07-08T13:33:33;34.60;7.40
16066;DHT22;8137;48.952;8.970;2023-07-08T13:36:03;35.00;4.90
16066;DHT22;8137;48.952;8.970;2023-07-08T13:38:35;35.30;3.90
16066;DHT22;8137;48.952;8.970;2023-07-08T13:41:06;35.40;2.50
16066;DHT22;8137;48.952;8.970;2023-07-08T13:43:37;35.30;3.40
16066;DHT22;8137;48.952;8.970;2023-07-08T13:46:04;35.10;2.60
16066;DHT22;8137;48.952;8.970;2023-07-08T13:48:38;35.10;3.50
16066;DHT22;8137;48.952;8.970;2023-07-08T13:56:24;34.90;2.40
16066;DHT22;8137;48.952;8.970;2023-07-08T13:58:52;34.70;2.10
16066;DHT22;8137;48.952;8.970;2023-07-08T14:01:20;34.50;2.40
16066;DHT22;8137;48.952;8.970;2023-07-08T14:03:46;34.40;3.20
16066;DHT22;8137;48.952;8.970;2023-07-08T14:06:16;34.30;2.50
16066;DHT22;8137;48.952;8.970;2023-07-08T14:08:42;34.10;2.70
16066;DHT22;8137;48.952;8.970;2023-07-08T14:11:07;33.90;2.80
16066;DHT22;8137;48.952;8.970;2023-07-08T14:13:33;33.90;3.60
16066;DHT22;8137;48.952;8.970;2023-07-08T14:16:00;34.20;4.00
16066;DHT22;8137;48.952;8.970;2023-07-08T14:18:26;34.30;3.90
16066;DHT22;8137;48.952;8.970;2023-07-08T14:20:51;34.50;4.10
16066;DHT22;8137;48.952;8.970;2023-07-08T14:23:18;34.50;1.70
16066;DHT22;8137;48.952;8.970;2023-07-08T14:25:44;34.50;2.10
16066;DHT22;8137;48.952;8.970;2023-07-08T14:28:10;34.30;1.70
16066;DHT22;8137;48.952;8.970;2023-07-08T14:30:41;34.30;3.20
16066;DHT22;8137;48.952;8.970;2023-07-08T14:33:11;34.30;2.30
16066;DHT22;8137;48.952;8.970;2023-07-08T14:35:38;34.30;1.30
16066;DHT22;8137;48.952;8.970;2023-07-08T14:38:13;34.30;2.40
16066;DHT22;8137;48.952;8.970;2023-07-08T14:40:41;34.30;1.70
16066;DHT22;8137;48.952;8.970;2023-07-08T14:45:51;34.30;2.00
16066;DHT22;8137;48.952;8.970;2023-07-08T14:48:18;34.50;1.90
16066;DHT22;8137;48.952;8.970;2023-07-08T14:50:44;34.60;1.80
16066;DHT22;8137;48.952;8.970;2023-07-08T14:53:10;34.60;1.00
16066;DHT22;8137;48.952;8.970;2023-07-08T14:55:36;34.50;1.00
16066;DHT22;8137;48.952;8.970;2023-07-08T14:58:02;34.40;1.00
16066;DHT22;8137;48.952;8.970;2023-07-08T15:00:29;34.30;1.00
16066;DHT22;8137;48.952;8.970;2023-07-08T15:02:54;34.30;1.00
16066;DHT22;8137;48.952;8.970;2023-07-08T15:05:23;34.40;1.20
16066;DHT22;8137;48.952;8.970;2023-07-08T15:07:50;34.50;1.00
16066;DHT22;8137;48.952;8.970;2023-07-08T15:10:17;34.80;1.30
16066;DHT22;8137;48.952;8.970;2023-07-08T15:12:42;34.90;1.00
16066;DHT22;8137;48.952;8.970;2023-07-08T15:15:34;35.10;1.00
16066;DHT22;8137;48.952;8.970;2023-07-08T15:18:12;35.10;1.00
16066;DHT22;8137;48.952;8.970;2023-07-08T15:20:39;35.20;1.20
16066;DHT22;8137;48.952;8.970;2023-07-08T15:23:05;35.30;1.00
16066;DHT22;8137;48.952;8.970;2023-07-08T15:25:30;35.20;1.00
16066;DHT22;8137;48.952;8.970;2023-07-08T15:27:58;35.20;1.00
16066;DHT22;8137;48.952;8.970;2023-07-08T15:30:26;35.20;1.00
16066;DHT22;8137;48.952;8.970;2023-07-08T15:32:53;35.10;1.00
16066;DHT22;8137;48.952;8.970;2023-07-08T15:35:21;35.10;1.00
16066;DHT22;8137;48.952;8.970;2023-07-08T15:37:47;35.10;1.00
16066;DHT22;8137;48.952;8.970;2023-07-08T15:40:15;35.10;1.00
16066;DHT22;8137;48.952;8.970;2023-07-08T15:42:41;34.90;1.00
16066;DHT22;8137;48.952;8.970;2023-07-08T15:45:13;34.80;1.00
16066;DHT22;8137;48.952;8.970;2023-07-08T15:47:39;34.60;1.00
16066;DHT22;8137;48.952;8.970;2023-07-08T15:50:13;34.60;1.00
16066;DHT22;8137;48.952;8.970;2023-07-08T15:52:39;34.70;1.00
16066;DHT22;8137;48.952;8.970;2023-07-08T15:55:07;34.60;1.00
16066;DHT22;8137;48.952;8.970;2023-07-08T15:57:34;34.60;1.00
16066;DHT22;8137;48.952;8.970;2023-07-08T16:00:02;34.80;1.00
16066;DHT22;8137;48.952;8.970;2023-07-08T16:02:30;35.00;1.00
16066;DHT22;8137;48.952;8.970;2023-07-08T16:04:56;35.00;1.70
16066;DHT22;8137;48.952;8.970;2023-07-08T16:07:22;35.00;1.00
16066;DHT22;8137;48.952;8.970;2023-07-08T16:09:47;34.90;1.00
16066;DHT22;8137;48.952;8.970;2023-07-08T16:12:16;34.80;1.00
16066;DHT22;8137;48.952;8.970;2023-07-08T16:14:44;34.80;1.00
16066;DHT22;8137;48.952;8.970;2023-07-08T16:17:10;34.60;1.00
16066;DHT22;8137;48.952;8.970;2023-07-08T16:19:36;34.60;1.00
16066;DHT22;8137;48.952;8.970;2023-07-08T16:22:02;34.60;1.00
16066;DHT22;8137;48.952;8.970;2023-07-08T16:24:28;34.60;1.00
16066;DHT22;8137;48.952;8.970;2023-07-08T16:26:54;34.60;1.00
16066;DHT22;8137;48.952;8.970;2023-07-08T16:29:21;34.50;1.00
16066;DHT22;8137;48.952;8.970;2023-07-08T16:31:47;34.60;1.00
16066;DHT22;8137;48.952;8.970;2023-07-08T16:34:13;34.60;1.00
16066;DHT22;8137;48.952;8.970;2023-07-08T16:36:39;34.70;1.00
16066;DHT22;8137;48.952;8.970;2023-07-08T16:39:06;34.80;1.00
16066;DHT22;8137;48.952;8.970;2023-07-08T16:41:34;35.00;1.00
16066;DHT22;8137;48.952;8.970;2023-07-08T16:44:02;35.10;1.00
16066;DHT22;8137;48.952;8.970;2023-07-08T16:46:27;35.10;1.00
16066;DHT22;8137;48.952;8.970;2023-07-08T16:48:53;35.10;1.00
16066;DHT22;8137;48.952;8.970;2023-07-08T16:51:28;35.10;1.00
16066;DHT22;8137;48.952;8.970;2023-07-08T16:54:01;35.10;1.00
16066;DHT22;8137;48.952;8.970;2023-07-08T16:56:33;35.00;1.00
16066;DHT22;8137;48.952;8.970;2023-07-08T16:58:59;34.90;1.00
16066;DHT22;8137;48.952;8.970;2023-07-08T17:01:26;34.80;1.00
16066;DHT22;8137;48.952;8.970;2023-07-08T17:03:53;34.60;1.00
16066;DHT22;8137;48.952;8.970;2023-07-08T17:06:20;34.50;1.00
16066;DHT22;8137;48.952;8.970;2023-07-08T17:08:46;34.60;1.00
16066;DHT22;8137;48.952;8.970;2023-07-08T17:11:12;34.60;1.00
16066;DHT22;8137;48.952;8.970;2023-07-08T17:13:37;34.70;1.00